Time;durP1;ratioP1;P1;durP2;ratioP2;P2;SDS_P1;SDS_P2;PMS_P1;PMS_P2;Temp;Humidity;BMP_temperature;BMP_pressure;BME280_temperature;BME280_humidity;BME280_pressure;Samples;Min_cycle;Max_cycle;Signal;HPM_P1;HPM_P2
2024/03/06 00:00:55;;;;;;;19.65;10.15;;;;;;;;;;4986720;28;20033;-79
2024/03/06 00:03:23;;;;;;;19.48;8.98;;;;;;;;;;4981272;28;20030;-80
2024/03/06 00:05:49;;;;;;;31.08;9.60;;;;;;;;;;5000744;28;20061;-80
2024/03/06 00:08:18;;;;;;;20.58;9.43;;;;;;;;;;4993504;28;20038;-80
2024/03/06 00:10:47;;;;;;;22.30;9.68;;;;;;;;;;4994366;28;20082;-79
2024/03/06 00:13:15;;;;;;;25.20;9.77;;;;;;;;;;4999985;28;20045;-78
2024/03/06 00:15:41;;;;;;;14.95;9.20;;;;;;;;;;4972291;28;20375;-80
2024/03/06 00:18:10;;;;;;;17.63;9.37;;;;;;;;;;4985336;28;20049;-79
2024/03/06 00:21:02;;;;;;;22.80;11.40;;;;;;;;;;4984611;28;20122;-80
2024/03/06 00:23:30;;;;;;;22.30;9.60;;;;;;;;;;4998230;28;20034;-80
2024/03/06 00:25:56;;;;;;;16.35;9.55;;;;;;;;;;4986303;28;20365;-80
2024/03/06 00:28:24;;;;;;;27.27;11.18;;;;;;;;;;4983572;28;20046;-80
2024/03/06 00:30:51;;;;;;;19.00;10.18;;;;;;;;;;4968214;28;20133;-80
2024/03/06 00:33:23;;;;;;;22.48;11.05;;;;;;;;;;5002425;28;20109;-80
2024/03/06 00:35:49;;;;;;;18.42;9.00;;;;;;;;;;5010113;28;20022;-80
2024/03/06 00:38:25;;;;;;;21.80;10.45;;;;;;;;;;4980244;28;20081;-78
2024/03/06 00:40:52;;;;;;;21.27;10.18;;;;;;;;;;4984637;28;20026;-78
2024/03/06 00:43:18;;;;;;;19.13;10.23;;;;;;;;;;5005682;28;20048;-79
2024/03/06 00:45:54;;;;;;;19.55;9.93;;;;;;;;;;4997357;28;20050;-80
2024/03/06 00:48:24;;;;;;;23.23;10.85;;;;;;;;;;4996550;28;20041;-80
2024/03/06 00:50:50;;;;;;;17.90;9.82;;;;;;;;;;4999283;28;20042;-79
2024/03/06 00:53:26;;;;;;;23.60;10.57;;;;;;;;;;5008901;28;20057;-80
2024/03/06 00:55:53;;;;;;;21.08;10.05;;;;;;;;;;4999901;28;20065;-79
2024/03/06 00:58:20;;;;;;;19.25;10.30;;;;;;;;;;4974393;28;20038;-79
2024/03/06 01:00:46;;;;;;;18.70;9.93;;;;;;;;;;4983579;28;20022;-80
2024/03/06 01:03:12;;;;;;;21.65;9.20;;;;;;;;;;4999015;28;20041;-79
2024/03/06 01:05:37;;;;;;;20.52;10.13;;;;;;;;;;4973404;28;20034;-79
2024/03/06 01:08:05;;;;;;;20.60;9.20;;;;;;;;;;4954329;28;20047;-80
2024/03/06 01:10:37;;;;;;;19.10;9.85;;;;;;;;;;4998782;28;20042;-78
2024/03/06 01:13:05;;;;;;;18.83;10.27;;;;;;;;;;4998653;28;20429;-79
2024/03/06 01:15:41;;;;;;;20.50;9.90;;;;;;;;;;5005577;28;20134;-79
2024/03/06 01:18:08;;;;;;;17.98;9.18;;;;;;;;;;4994399;28;20046;-78
2024/03/06 01:20:34;;;;;;;19.42;9.85;;;;;;;;;;4982112;28;20459;-79
2024/03/06 01:23:03;;;;;;;18.65;9.25;;;;;;;;;;4992691;28;20067;-80
2024/03/06 01:25:33;;;;;;;22.35;10.75;;;;;;;;;;4987994;28;20098;-78
2024/03/06 01:28:01;;;;;;;17.35;9.25;;;;;;;;;;4984141;28;20052;-80
2024/03/06 01:30:29;;;;;;;21.48;9.63;;;;;;;;;;4997101;28;20077;-80
2024/03/06 01:32:57;;;;;;;19.95;9.23;;;;;;;;;;4984485;28;20461;-80
2024/03/06 01:35:31;;;;;;;20.70;9.88;;;;;;;;;;4981819;28;20200;-79
2024/03/06 01:38:01;;;;;;;20.70;10.07;;;;;;;;;;4997735;28;20066;-79
2024/03/06 01:40:29;;;;;;;17.02;8.85;;;;;;;;;;4989140;28;20138;-79
2024/03/06 01:42:55;;;;;;;16.52;8.45;;;;;;;;;;4989914;28;20022;-80
2024/03/06 01:45:21;;;;;;;22.23;9.48;;;;;;;;;;4996662;28;20036;-79
2024/03/06 01:47:51;;;;;;;16.40;10.25;;;;;;;;;;4993457;28;20038;-81
2024/03/06 01:50:26;;;;;;;15.68;9.25;;;;;;;;;;4971363;28;20437;-79
2024/03/06 01:52:55;;;;;;;22.52;9.85;;;;;;;;;;4998414;28;20038;-80
2024/03/06 01:55:20;;;;;;;21.98;10.70;;;;;;;;;;4982871;28;20031;-81
2024/03/06 01:57:48;;;;;;;18.98;9.90;;;;;;;;;;4998899;28;20122;-79
2024/03/06 02:00:14;;;;;;;20.63;10.25;;;;;;;;;;5000201;28;20022;-79
2024/03/06 02:02:44;;;;;;;24.02;10.10;;;;;;;;;;5010339;28;20050;-80
2024/03/06 02:05:12;;;;;;;21.60;9.63;;;;;;;;;;5019426;28;20038;-79
2024/03/06 02:07:45;;;;;;;19.65;10.40;;;;;;;;;;5003777;28;20034;-78
2024/03/06 02:10:18;;;;;;;;;;;;;;;;;;5021079;28;20018;-79
2024/03/06 02:12:45;;;;;;;18.15;10.55;;;;;;;;;;5019072;28;19921;-80
2024/03/06 02:15:14;;;;;;;23.17;10.45;;;;;;;;;;4997499;28;20061;-78
2024/03/06 02:17:42;;;;;;;20.40;10.45;;;;;;;;;;4998227;28;20070;-80
2024/03/06 02:20:12;;;;;;;20.88;10.73;;;;;;;;;;4986938;28;20038;-78
2024/03/06 02:22:39;;;;;;;25.27;11.32;;;;;;;;;;5015073;28;20034;-78
2024/03/06 02:25:12;;;;;;;20.35;11.43;;;;;;;;;;4977845;28;20050;-80
2024/03/06 02:27:39;;;;;;;19.02;11.43;;;;;;;;;;4998083;28;20022;-80
2024/03/06 02:30:04;;;;;;;25.17;11.48;;;;;;;;;;4986673;28;20230;-81
2024/03/06 02:32:30;;;;;;;18.77;10.95;;;;;;;;;;4989881;28;20398;-80
2024/03/06 02:35:02;;;;;;;21.58;11.43;;;;;;;;;;5005902;28;20510;-78
2024/03/06 02:37:29;;;;;;;27.90;11.57;;;;;;;;;;5006671;28;20035;-79
2024/03/06 02:40:00;;;;;;;21.50;11.60;;;;;;;;;;4982629;28;20030;-79
2024/03/06 02:42:27;;;;;;;28.02;11.98;;;;;;;;;;4964728;28;20049;-78
2024/03/06 02:44:53;;;;;;;25.60;11.85;;;;;;;;;;4998985;28;20042;-80
2024/03/06 02:47:20;;;;;;;23.83;11.57;;;;;;;;;;4999270;28;20129;-81
2024/03/06 02:49:46;;;;;;;24.00;11.82;;;;;;;;;;4997214;28;20030;-80
2024/03/06 02:52:14;;;;;;;29.00;11.82;;;;;;;;;;4999147;28;20050;-80
2024/03/06 02:54:42;;;;;;;26.83;12.80;;;;;;;;;;4997334;28;20109;-79
2024/03/06 02:57:09;;;;;;;24.13;12.88;;;;;;;;;;4979524;28;20038;-79
2024/03/06 02:59:35;;;;;;;26.15;12.02;;;;;;;;;;4961525;28;20406;-79
2024/03/06 03:02:03;;;;;;;23.40;12.32;;;;;;;;;;5002424;28;20084;-80
2024/03/06 03:04:28;;;;;;;27.52;12.50;;;;;;;;;;4960850;28;20065;-78
2024/03/06 03:06:54;;;;;;;29.25;14.10;;;;;;;;;;4970682;28;20102;-78
2024/03/06 03:09:24;;;;;;;23.95;12.93;;;;;;;;;;4995584;28;20108;-80
2024/03/06 03:11:50;;;;;;;22.35;12.20;;;;;;;;;;4991570;28;20035;-79
2024/03/06 03:14:16;;;;;;;23.23;12.77;;;;;;;;;;4992282;28;20033;-78
2024/03/06 03:17:06;;;;;;;24.85;13.30;;;;;;;;;;4983416;28;20093;-79
2024/03/06 03:19:42;;;;;;;25.02;12.65;;;;;;;;;;4964505;28;20398;-79
2024/03/06 03:22:10;;;;;;;29.60;14.73;;;;;;;;;;4976855;28;20030;-80
2024/03/06 03:24:37;;;;;;;24.15;13.05;;;;;;;;;;5013350;28;20034;-80
2024/03/06 03:27:04;;;;;;;28.67;13.40;;;;;;;;;;4979099;28;20032;-80
2024/03/06 03:29:30;;;;;;;24.67;12.50;;;;;;;;;;4977658;28;20034;-79
2024/03/06 03:31:56;;;;;;;28.38;13.55;;;;;;;;;;4988161;28;20097;-79
2024/03/06 03:34:22;;;;;;;32.63;14.60;;;;;;;;;;4987453;28;20106;-80
2024/03/06 03:36:51;;;;;;;23.02;12.90;;;;;;;;;;4986528;28;20054;-80
2024/03/06 03:39:20;;;;;;;29.42;13.15;;;;;;;;;;4959218;28;20047;-77
2024/03/06 03:41:59;;;;;;;29.80;13.60;;;;;;;;;;4992516;28;20035;-78
2024/03/06 03:44:25;;;;;;;35.17;15.93;;;;;;;;;;4977771;28;20038;-80
2024/03/06 03:46:53;;;;;;;30.80;15.35;;;;;;;;;;5010950;28;20047;-79
2024/03/06 03:49:21;;;;;;;25.92;13.38;;;;;;;;;;4987940;28;20037;-78
2024/03/06 03:51:47;;;;;;;25.88;13.57;;;;;;;;;;4979158;28;20034;-80
2024/03/06 03:54:19;;;;;;;32.58;14.50;;;;;;;;;;4987257;28;20033;-80
2024/03/06 03:56:48;;;;;;;36.22;17.00;;;;;;;;;;4972856;28;20099;-79
2024/03/06 03:59:16;;;;;;;42.33;21.27;;;;;;;;;;4981636;28;20103;-80
2024/03/06 04:01:47;;;;;;;39.78;18.92;;;;;;;;;;4972862;28;20038;-80
2024/03/06 04:04:17;;;;;;;30.20;14.07;;;;;;;;;;4982760;28;20084;-79
2024/03/06 04:06:43;;;;;;;31.95;13.65;;;;;;;;;;4968859;28;20079;-80
2024/03/06 04:09:16;;;;;;;29.23;13.80;;;;;;;;;;4993063;28;20050;-80
2024/03/06 04:11:43;;;;;;;28.73;13.45;;;;;;;;;;4989336;28;20050;-80
2024/03/06 04:14:13;;;;;;;29.63;14.85;;;;;;;;;;4965121;28;20042;-79
2024/03/06 04:16:44;;;;;;;31.30;14.50;;;;;;;;;;4995207;28;20148;-79
2024/03/06 04:19:12;;;;;;;26.05;14.13;;;;;;;;;;5011343;28;20037;-80
2024/03/06 04:21:43;;;;;;;24.52;14.23;;;;;;;;;;4987401;28;20030;-80
2024/03/06 04:24:09;;;;;;;31.17;14.23;;;;;;;;;;4995265;28;20035;-80
2024/03/06 04:26:36;;;;;;;23.88;13.38;;;;;;;;;;4976689;28;20038;-79
2024/03/06 04:29:03;;;;;;;27.45;14.98;;;;;;;;;;4987848;28;20038;-80
2024/03/06 04:31:29;;;;;;;24.73;12.40;;;;;;;;;;4985765;28;20514;-80
2024/03/06 04:33:56;;;;;;;33.20;14.38;;;;;;;;;;4946609;28;20192;-79
2024/03/06 04:36:29;;;;;;;28.17;14.10;;;;;;;;;;4991870;28;20567;-80
2024/03/06 04:38:58;;;;;;;34.90;15.15;;;;;;;;;;5002557;28;20045;-81
2024/03/06 04:41:23;;;;;;;26.08;14.30;;;;;;;;;;4979349;28;20038;-79
2024/03/06 04:43:50;;;;;;;34.45;14.48;;;;;;;;;;4975892;28;20026;-79
2024/03/06 04:46:22;;;;;;;30.50;15.15;;;;;;;;;;5004120;28;20446;-79
2024/03/06 04:48:54;;;;;;;29.80;15.13;;;;;;;;;;5007608;28;20385;-80
2024/03/06 04:51:28;;;;;;;28.40;13.80;;;;;;;;;;5009424;28;20035;-80
2024/03/06 04:53:54;;;;;;;40.38;15.68;;;;;;;;;;4995205;28;20094;-79
2024/03/06 04:56:20;;;;;;;32.35;14.52;;;;;;;;;;5006507;28;20100;-80
2024/03/06 04:58:47;;;;;;;33.10;14.55;;;;;;;;;;5020645;28;20030;-80
2024/03/06 05:01:17;;;;;;;28.90;15.05;;;;;;;;;;5004767;28;20022;-80
2024/03/06 05:03:49;;;;;;;38.40;16.80;;;;;;;;;;5000508;28;20031;-80
2024/03/06 05:06:16;;;;;;;30.60;15.57;;;;;;;;;;5022980;28;20122;-80
2024/03/06 05:08:44;;;;;;;28.98;14.98;;;;;;;;;;4993183;28;20031;-77
2024/03/06 05:11:09;;;;;;;28.50;15.07;;;;;;;;;;5010891;28;20045;-79
2024/03/06 05:13:37;;;;;;;32.60;16.48;;;;;;;;;;4991266;28;20039;-79
2024/03/06 05:16:09;;;;;;;29.08;15.50;;;;;;;;;;4997557;28;20054;-79
2024/03/06 05:19:31;;;;;;;27.33;14.60;;;;;;;;;;5003353;28;20085;-80
2024/03/06 05:21:58;;;;;;;31.83;15.48;;;;;;;;;;5012150;28;20033;-79
2024/03/06 05:24:24;;;;;;;36.75;15.40;;;;;;;;;;4998201;28;20060;-80
2024/03/06 05:26:50;;;;;;;33.63;15.52;;;;;;;;;;4985702;28;20042;-79
2024/03/06 05:29:17;;;;;;;33.00;16.02;;;;;;;;;;4963256;28;20492;-80
2024/03/06 05:31:44;;;;;;;29.05;15.50;;;;;;;;;;4994276;28;20422;-79
2024/03/06 05:34:09;;;;;;;34.83;15.32;;;;;;;;;;4990589;28;20045;-79
2024/03/06 05:36:35;;;;;;;31.23;16.60;;;;;;;;;;4961363;28;20054;-79
2024/03/06 05:39:01;;;;;;;35.33;16.70;;;;;;;;;;4988092;28;20041;-80
2024/03/06 05:41:28;;;;;;;32.75;16.58;;;;;;;;;;5011498;28;20406;-80
2024/03/06 05:43:55;;;;;;;32.53;16.33;;;;;;;;;;4974458;28;20031;-80
2024/03/06 05:46:20;;;;;;;35.53;16.65;;;;;;;;;;4984434;28;20125;-80
2024/03/06 05:48:47;;;;;;;34.45;16.83;;;;;;;;;;4988028;28;20039;-80
2024/03/06 05:51:18;;;;;;;29.10;15.15;;;;;;;;;;4994696;28;20042;-79
2024/03/06 05:53:44;;;;;;;;;;;;;;;;;;4976031;28;20062;-80
2024/03/06 05:56:19;;;;;;;32.03;14.50;;;;;;;;;;4976531;28;19937;-80
2024/03/06 05:58:46;;;;;;;28.73;15.02;;;;;;;;;;4978658;28;20490;-79
2024/03/06 06:01:15;;;;;;;33.35;16.55;;;;;;;;;;4988161;28;20030;-80
2024/03/06 06:03:41;;;;;;;27.00;15.18;;;;;;;;;;4984298;28;20034;-80
2024/03/06 06:06:10;;;;;;;37.03;15.55;;;;;;;;;;4997296;28;20030;-79
2024/03/06 06:08:36;;;;;;;30.52;14.80;;;;;;;;;;4987646;28;20034;-82
2024/03/06 06:11:03;;;;;;;33.13;16.42;;;;;;;;;;4995188;28;20485;-79
2024/03/06 06:13:29;;;;;;;29.50;15.23;;;;;;;;;;4985962;28;20038;-80
2024/03/06 06:15:57;;;;;;;30.70;14.52;;;;;;;;;;4983718;28;20041;-80
2024/03/06 06:18:23;;;;;;;36.37;14.93;;;;;;;;;;4995739;28;20034;-82
2024/03/06 06:20:50;;;;;;;34.80;16.92;;;;;;;;;;4994060;28;20268;-80
2024/03/06 06:23:16;;;;;;;32.05;14.15;;;;;;;;;;4974708;28;20475;-80
2024/03/06 06:25:44;;;;;;;24.30;13.40;;;;;;;;;;4983735;28;20041;-80
2024/03/06 06:28:10;;;;;;;32.53;16.10;;;;;;;;;;4982569;28;20072;-80
2024/03/06 06:30:38;;;;;;;30.38;14.85;;;;;;;;;;4973950;28;20046;-79
2024/03/06 06:33:05;;;;;;;30.98;14.30;;;;;;;;;;4983375;28;20030;-79
2024/03/06 06:35:30;;;;;;;34.42;16.23;;;;;;;;;;4983975;28;20120;-81
2024/03/06 06:37:56;;;;;;;32.78;15.18;;;;;;;;;;4985955;28;20066;-80
2024/03/06 06:40:21;;;;;;;29.83;14.55;;;;;;;;;;4979075;28;20435;-80
2024/03/06 06:42:49;;;;;;;32.10;16.98;;;;;;;;;;4962095;28;20038;-80
2024/03/06 06:45:18;;;;;;;34.73;15.70;;;;;;;;;;4970418;28;20397;-80
2024/03/06 06:47:44;;;;;;;37.80;15.73;;;;;;;;;;4978139;28;20030;-79
2024/03/06 06:50:11;;;;;;;36.83;15.98;;;;;;;;;;4974223;28;20035;-80
2024/03/06 06:52:37;;;;;;;33.10;16.23;;;;;;;;;;4959285;28;20045;-81
2024/03/06 06:55:03;;;;;;;30.42;15.80;;;;;;;;;;4966985;28;20093;-81
2024/03/06 06:57:31;;;;;;;28.10;15.02;;;;;;;;;;4975898;28;20117;-81
2024/03/06 06:59:56;;;;;;;38.35;16.20;;;;;;;;;;4990795;28;20022;-80
2024/03/06 07:02:21;;;;;;;31.38;16.55;;;;;;;;;;4975501;28;20050;-80
2024/03/06 07:04:48;;;;;;;31.15;15.38;;;;;;;;;;4996544;28;20030;-79
2024/03/06 07:07:14;;;;;;;29.67;16.17;;;;;;;;;;4961054;28;20042;-79
2024/03/06 07:09:39;;;;;;;37.47;15.93;;;;;;;;;;4958022;28;20367;-79
2024/03/06 07:12:05;;;;;;;30.17;14.38;;;;;;;;;;4979098;28;20541;-80
2024/03/06 07:14:34;;;;;;;34.00;16.48;;;;;;;;;;4991256;28;20042;-79
2024/03/06 07:17:00;;;;;;;29.95;15.65;;;;;;;;;;4980475;28;20043;-78
2024/03/06 07:19:28;;;;;;;38.60;16.92;;;;;;;;;;4974427;28;20042;-79
2024/03/06 07:21:54;;;;;;;35.28;17.20;;;;;;;;;;4987664;28;20039;-79
2024/03/06 07:24:21;;;;;;;33.28;15.55;;;;;;;;;;4983071;28;20034;-79
2024/03/06 07:26:50;;;;;;;25.30;12.80;;;;;;;;;;4982944;28;20037;-80
2024/03/06 07:29:17;;;;;;;36.45;16.33;;;;;;;;;;4966420;28;20053;-79
2024/03/06 07:31:47;;;;;;;37.67;17.92;;;;;;;;;;4990331;28;20108;-79
2024/03/06 07:34:18;;;;;;;38.22;17.52;;;;;;;;;;4996442;28;20109;-79
2024/03/06 07:36:46;;;;;;;30.17;16.30;;;;;;;;;;4990620;28;20058;-79
2024/03/06 07:39:12;;;;;;;32.72;16.52;;;;;;;;;;4987734;28;20034;-80
2024/03/06 07:41:37;;;;;;;34.13;16.20;;;;;;;;;;4979350;28;20084;-80
2024/03/06 07:44:03;;;;;;;34.15;16.60;;;;;;;;;;4994425;28;20498;-78
2024/03/06 07:46:28;;;;;;;34.95;16.58;;;;;;;;;;5010229;28;20042;-78
2024/03/06 07:48:54;;;;;;;35.70;16.48;;;;;;;;;;4995067;28;21496;-78
2024/03/06 07:51:23;;;;;;;34.55;17.27;;;;;;;;;;5002564;28;20059;-79
2024/03/06 07:53:52;;;;;;;40.50;18.27;;;;;;;;;;4994552;28;20015;-78
2024/03/06 07:56:19;;;;;;;36.13;18.25;;;;;;;;;;5025553;28;20043;-78
2024/03/06 07:58:47;;;;;;;36.40;18.45;;;;;;;;;;5009796;28;20038;-79
2024/03/06 08:01:13;;;;;;;31.60;16.83;;;;;;;;;;4972336;28;20043;-79
2024/03/06 08:03:40;;;;;;;39.28;18.55;;;;;;;;;;4983523;28;20093;-78
2024/03/06 08:06:05;;;;;;;41.90;18.30;;;;;;;;;;4986033;28;20043;-80
2024/03/06 08:08:31;;;;;;;40.00;19.30;;;;;;;;;;4949954;28;20039;-79
2024/03/06 08:10:56;;;;;;;40.72;18.40;;;;;;;;;;4986069;28;20035;-78
2024/03/06 08:13:22;;;;;;;38.53;19.27;;;;;;;;;;4989931;28;20509;-80
2024/03/06 08:15:48;;;;;;;34.03;17.58;;;;;;;;;;4977947;28;20055;-79
2024/03/06 08:18:14;;;;;;;38.38;18.92;;;;;;;;;;4977250;28;20054;-77
2024/03/06 08:20:40;;;;;;;38.33;17.48;;;;;;;;;;4989650;28;20030;-80
2024/03/06 08:23:10;;;;;;;35.42;18.23;;;;;;;;;;4978121;28;20094;-78
2024/03/06 08:25:35;;;;;;;35.38;18.05;;;;;;;;;;4968555;28;20065;-78
2024/03/06 08:28:10;;;;;;;40.47;19.00;;;;;;;;;;4976600;28;20607;-79
2024/03/06 08:30:38;;;;;;;39.60;19.00;;;;;;;;;;4986692;28;20518;-80
2024/03/06 08:33:09;;;;;;;39.30;18.80;;;;;;;;;;4994109;28;20035;-80
2024/03/06 08:35:34;;;;;;;47.65;20.45;;;;;;;;;;5006846;28;20031;-81
2024/03/06 08:38:00;;;;;;;39.80;19.70;;;;;;;;;;4993741;28;20027;-80
2024/03/06 08:40:30;;;;;;;43.30;19.95;;;;;;;;;;5011537;28;20034;-81
2024/03/06 08:42:56;;;;;;;39.15;20.05;;;;;;;;;;4993258;28;20042;-81
2024/03/06 08:45:31;;;;;;;35.15;19.17;;;;;;;;;;4989700;28;20146;-80
2024/03/06 08:47:59;;;;;;;38.30;18.30;;;;;;;;;;5007227;28;20022;-79
2024/03/06 08:50:24;;;;;;;47.38;20.35;;;;;;;;;;4992907;28;20042;-79
2024/03/06 08:52:51;;;;;;;39.92;21.42;;;;;;;;;;4966964;28;20050;-80
2024/03/06 08:55:21;;;;;;;43.15;20.55;;;;;;;;;;4994087;28;20104;-79
2024/03/06 08:57:50;;;;;;;46.70;19.98;;;;;;;;;;4993088;28;20054;-79
2024/03/06 09:00:17;;;;;;;40.95;19.20;;;;;;;;;;4986388;28;20018;-78
2024/03/06 09:02:46;;;;;;;41.28;19.80;;;;;;;;;;4978737;28;20046;-78
2024/03/06 09:05:15;;;;;;;45.53;19.65;;;;;;;;;;4995734;28;20034;-79
2024/03/06 09:07:45;;;;;;;39.60;20.25;;;;;;;;;;4987051;28;20077;-79
2024/03/06 09:10:11;;;;;;;;;;;;;;;;;;4991277;28;20371;-79
2024/03/06 09:12:37;;;;;;;38.15;18.38;;;;;;;;;;4987007;28;19916;-79
2024/03/06 09:15:03;;;;;;;37.83;20.10;;;;;;;;;;4983938;28;20030;-79
2024/03/06 09:17:35;;;;;;;39.47;20.25;;;;;;;;;;4980578;28;20026;-78
2024/03/06 09:20:11;;;;;;;47.88;22.52;;;;;;;;;;4993464;28;20030;-81
2024/03/06 09:22:44;;;;;;;43.28;21.80;;;;;;;;;;4959981;28;20065;-79
2024/03/06 09:25:30;;;;;;;41.92;20.83;;;;;;;;;;4991523;28;20052;-80
2024/03/06 09:27:59;;;;;;;42.05;21.60;;;;;;;;;;4992086;28;20038;-81
2024/03/06 09:30:28;;;;;;;47.25;22.02;;;;;;;;;;4977950;28;20652;-79
2024/03/06 09:32:53;;;;;;;42.90;20.73;;;;;;;;;;4994981;28;20034;-80
2024/03/06 09:35:20;;;;;;;44.28;21.30;;;;;;;;;;4992822;28;20034;-80
2024/03/06 09:37:51;;;;;;;42.67;20.60;;;;;;;;;;4976061;28;20034;-80
2024/03/06 09:40:21;;;;;;;47.65;22.30;;;;;;;;;;4995725;28;20022;-81
2024/03/06 09:42:56;;;;;;;40.60;21.17;;;;;;;;;;4981921;28;20043;-82
2024/03/06 09:45:23;;;;;;;47.10;21.65;;;;;;;;;;4978712;28;20031;-82
2024/03/06 09:47:52;;;;;;;45.92;21.80;;;;;;;;;;4988144;28;20068;-81
2024/03/06 09:50:24;;;;;;;43.33;21.92;;;;;;;;;;5002041;28;20034;-82
2024/03/06 09:52:51;;;;;;;42.92;22.65;;;;;;;;;;4982522;28;20065;-81
2024/03/06 09:55:18;;;;;;;44.42;22.05;;;;;;;;;;4990517;28;20043;-82
2024/03/06 09:57:43;;;;;;;41.42;22.20;;;;;;;;;;4995418;28;20081;-81
2024/03/06 10:00:12;;;;;;;39.50;21.13;;;;;;;;;;4967325;28;20497;-80
2024/03/06 10:02:41;;;;;;;43.42;20.15;;;;;;;;;;4965737;28;20101;-80
2024/03/06 10:05:20;;;;;;;43.20;21.30;;;;;;;;;;4989473;28;20470;-80
2024/03/06 10:07:46;;;;;;;41.53;22.15;;;;;;;;;;4976079;28;20034;-82
2024/03/06 10:10:11;;;;;;;42.45;20.73;;;;;;;;;;4997287;28;20038;-82
2024/03/06 10:12:36;;;;;;;41.03;20.38;;;;;;;;;;4980655;28;20497;-81
2024/03/06 10:15:04;;;;;;;42.38;20.23;;;;;;;;;;4993417;28;20034;-80
2024/03/06 10:17:29;;;;;;;43.20;21.20;;;;;;;;;;4966592;28;20092;-82
2024/03/06 10:19:55;;;;;;;38.88;21.08;;;;;;;;;;4963981;28;20035;-82
2024/03/06 10:22:20;;;;;;;44.40;21.35;;;;;;;;;;4993812;28;20026;-80
2024/03/06 10:24:47;;;;;;;44.92;21.15;;;;;;;;;;4969401;28;20052;-81
2024/03/06 10:27:18;;;;;;;44.42;21.13;;;;;;;;;;4994073;28;20042;-80
2024/03/06 10:29:45;;;;;;;44.75;21.67;;;;;;;;;;4998932;28;20133;-81
2024/03/06 10:32:11;;;;;;;43.25;19.95;;;;;;;;;;4997087;28;20046;-83
2024/03/06 10:34:37;;;;;;;39.00;20.33;;;;;;;;;;4965555;28;20140;-82
2024/03/06 10:37:06;;;;;;;44.17;19.90;;;;;;;;;;4966203;28;20034;-83
2024/03/06 10:39:36;;;;;;;36.72;19.58;;;;;;;;;;4971746;28;20039;-82
2024/03/06 10:42:02;;;;;;;36.55;20.00;;;;;;;;;;5013162;28;20067;-82
2024/03/06 10:44:28;;;;;;;40.95;21.10;;;;;;;;;;4982174;28;20031;-83
2024/03/06 10:47:09;;;;;;;36.40;19.95;;;;;;;;;;5012038;28;20023;-82
2024/03/06 10:49:35;;;;;;;38.90;21.02;;;;;;;;;;4987810;28;20025;-81
2024/03/06 10:52:01;;;;;;;42.22;22.02;;;;;;;;;;4971172;28;20046;-82
2024/03/06 10:54:29;;;;;;;39.97;19.48;;;;;;;;;;4972904;28;20041;-82
2024/03/06 10:56:54;;;;;;;44.35;20.48;;;;;;;;;;4988597;28;20041;-81
2024/03/06 10:59:20;;;;;;;37.38;21.67;;;;;;;;;;4985084;28;20046;-81
2024/03/06 11:01:46;;;;;;;42.17;20.45;;;;;;;;;;4982840;28;20718;-81
2024/03/06 11:04:12;;;;;;;40.53;21.73;;;;;;;;;;4975224;28;20105;-84
2024/03/06 11:06:41;;;;;;;36.63;20.35;;;;;;;;;;4964613;28;20050;-81
2024/03/06 11:09:11;;;;;;;40.08;21.10;;;;;;;;;;5002372;28;20034;-82
2024/03/06 11:11:47;;;;;;;35.90;21.15;;;;;;;;;;4995915;28;20033;-82
2024/03/06 11:14:13;;;;;;;43.08;21.17;;;;;;;;;;4971402;28;20081;-80
2024/03/06 11:17:02;;;;;;;39.53;21.10;;;;;;;;;;4982150;28;20045;-80
2024/03/06 11:19:29;;;;;;;32.38;19.10;;;;;;;;;;4982855;28;20033;-80
2024/03/06 11:21:54;;;;;;;34.33;18.45;;;;;;;;;;4987542;28;20474;-79
2024/03/06 11:24:31;;;;;;;33.05;18.58;;;;;;;;;;4990769;28;20041;-80
2024/03/06 11:26:57;;;;;;;32.30;17.58;;;;;;;;;;4967742;28;20133;-80
2024/03/06 11:29:56;;;;;;;34.03;19.40;;;;;;;;;;4979465;28;20034;-80
2024/03/06 11:32:24;;;;;;;31.55;18.08;;;;;;;;;;4975350;28;20061;-79
2024/03/06 11:34:50;;;;;;;33.38;16.88;;;;;;;;;;5004512;28;20042;-79
2024/03/06 11:37:20;;;;;;;28.27;16.48;;;;;;;;;;4985497;28;20046;-81
2024/03/06 11:39:47;;;;;;;30.95;16.45;;;;;;;;;;5011277;28;20076;-81
2024/03/06 11:42:16;;;;;;;28.23;16.50;;;;;;;;;;5007295;28;20477;-79
2024/03/06 11:44:59;;;;;;;28.67;14.73;;;;;;;;;;5000009;28;20049;-79
2024/03/06 11:47:32;;;;;;;30.33;15.50;;;;;;;;;;4982695;28;20444;-79
2024/03/06 11:50:01;;;;;;;30.85;15.10;;;;;;;;;;4978963;28;20106;-79
2024/03/06 11:52:33;;;;;;;35.25;17.00;;;;;;;;;;5013464;28;20038;-80
2024/03/06 11:55:06;;;;;;;30.83;17.92;;;;;;;;;;5000535;28;20031;-79
2024/03/06 11:57:40;;;;;;;27.70;16.95;;;;;;;;;;4991881;28;20058;-81
2024/03/06 12:00:29;;;;;;;29.98;17.40;;;;;;;;;;5001969;28;20029;-80
2024/03/06 12:02:55;;;;;;;;;;;;;;;;;;4998674;28;20026;-81
2024/03/06 12:05:28;;;;;;;32.95;17.83;;;;;;;;;;4978110;28;20301;-81
2024/03/06 12:07:57;;;;;;;36.17;19.35;;;;;;;;;;5000193;28;20043;-81
2024/03/06 12:10:29;;;;;;;31.58;19.00;;;;;;;;;;4980368;28;20034;-80
2024/03/06 12:12:59;;;;;;;33.05;19.02;;;;;;;;;;4993805;28;20235;-78
2024/03/06 12:15:35;;;;;;;27.55;16.92;;;;;;;;;;4996045;28;20034;-79
2024/03/06 12:18:13;;;;;;;32.67;17.05;;;;;;;;;;4968334;28;20034;-79
2024/03/06 12:20:48;;;;;;;29.42;16.00;;;;;;;;;;4979132;28;20033;-81
2024/03/06 12:23:25;;;;;;;28.40;15.57;;;;;;;;;;4987483;28;20019;-81
2024/03/06 12:26:05;;;;;;;33.08;16.90;;;;;;;;;;4983038;28;20064;-80
2024/03/06 12:29:03;;;;;;;26.17;15.20;;;;;;;;;;4983270;28;20030;-81
2024/03/06 12:31:37;;;;;;;27.90;14.90;;;;;;;;;;5009295;28;20042;-80
2024/03/06 12:34:06;;;;;;;25.42;14.48;;;;;;;;;;5000988;28;20035;-82
2024/03/06 12:36:37;;;;;;;24.77;14.00;;;;;;;;;;4976085;28;20049;-82
2024/03/06 12:42:16;;;;;;;24.70;13.43;;;;;;;;;;5015655;28;20034;-79
2024/03/06 12:44:51;;;;;;;25.35;15.25;;;;;;;;;;4980016;28;20030;-79
2024/03/06 12:48:00;;;;;;;26.73;16.23;;;;;;;;;;4976636;28;20071;-80
2024/03/06 12:50:38;;;;;;;27.52;16.05;;;;;;;;;;4983424;28;20042;-80
2024/03/06 12:53:21;;;;;;;24.00;15.25;;;;;;;;;;4955659;28;20030;-80
2024/03/06 12:56:18;;;;;;;29.23;15.82;;;;;;;;;;4982999;28;20096;-80
2024/03/06 12:59:11;;;;;;;27.13;14.60;;;;;;;;;;4997561;28;20046;-79
2024/03/06 13:01:45;;;;;;;26.52;15.95;;;;;;;;;;4994878;28;20103;-81
2024/03/06 13:04:19;;;;;;;26.70;15.02;;;;;;;;;;4971444;28;20039;-79
2024/03/06 13:07:11;;;;;;;24.90;15.85;;;;;;;;;;4981992;28;20054;-80
2024/03/06 13:10:03;;;;;;;27.50;15.00;;;;;;;;;;4985711;28;20037;-79
2024/03/06 13:12:53;;;;;;;26.67;14.18;;;;;;;;;;4968301;28;20038;-79
2024/03/06 13:16:27;;;;;;;28.20;15.30;;;;;;;;;;4989952;28;20089;-78
2024/03/06 13:19:04;;;;;;;31.30;16.00;;;;;;;;;;4984953;28;20053;-79
2024/03/06 13:25:06;;;;;;;30.40;17.17;;;;;;;;;;4994361;28;20069;-78
2024/03/06 13:28:20;;;;;;;31.10;15.55;;;;;;;;;;4971345;28;20038;-80
2024/03/06 13:31:15;;;;;;;24.45;14.15;;;;;;;;;;5011220;28;20378;-80
2024/03/06 13:34:07;;;;;;;26.70;15.23;;;;;;;;;;4980852;28;20047;-80
2024/03/06 13:37:21;;;;;;;24.73;13.88;;;;;;;;;;4998833;28;20056;-81
2024/03/06 13:40:10;;;;;;;;;;;;;;;;;;;;;
2024/03/06 13:42:46;;;;;;;23.30;14.00;;;;;;;;;;4950492;28;20032;-80
2024/03/06 13:45:34;;;;;;;26.42;14.23;;;;;;;;;;4889124;29;20040;-81
2024/03/06 13:48:16;;;;;;;24.70;13.20;;;;;;;;;;4913955;29;20032;-81
2024/03/06 13:50:46;;;;;;;26.38;14.90;;;;;;;;;;4911209;29;20047;-81
2024/03/06 13:53:13;;;;;;;34.83;14.38;;;;;;;;;;4870578;29;20029;-79
2024/03/06 13:55:40;;;;;;;20.17;12.40;;;;;;;;;;4879873;29;20045;-79
2024/03/06 13:58:07;;;;;;;21.90;11.93;;;;;;;;;;4903822;29;20504;-80
2024/03/06 14:00:35;;;;;;;24.27;12.02;;;;;;;;;;4880611;29;20084;-79
2024/03/06 14:03:01;;;;;;;58.97;13.77;;;;;;;;;;4878414;29;20085;-81
2024/03/06 14:05:32;;;;;;;26.88;11.63;;;;;;;;;;4904051;29;20060;-81
2024/03/06 14:07:58;;;;;;;18.30;11.18;;;;;;;;;;4894823;29;20048;-80
2024/03/06 14:10:26;;;;;;;;;;;;;;;;;;4895297;29;20103;-81
2024/03/06 14:12:54;;;;;;;16.23;10.10;;;;;;;;;;4899350;29;19919;-81
2024/03/06 14:15:26;;;;;;;15.75;9.65;;;;;;;;;;4893565;29;20072;-80
2024/03/06 14:18:22;;;;;;;18.87;9.23;;;;;;;;;;4896008;29;20033;-81
2024/03/06 14:21:00;;;;;;;17.95;9.07;;;;;;;;;;4898615;29;20783;-80
2024/03/06 14:23:29;;;;;;;14.82;8.13;;;;;;;;;;4869337;29;20028;-80
2024/03/06 14:26:22;;;;;;;13.55;7.53;;;;;;;;;;4865773;29;20068;-81
2024/03/06 14:28:51;;;;;;;15.90;7.78;;;;;;;;;;4885915;29;20051;-81
2024/03/06 14:31:51;;;;;;;14.18;6.93;;;;;;;;;;4924806;29;20035;-80
2024/03/06 14:34:34;;;;;;;14.68;7.28;;;;;;;;;;4939828;29;20079;-80
2024/03/06 14:37:03;;;;;;;16.50;7.25;;;;;;;;;;4910136;29;20074;-81
2024/03/06 14:39:38;;;;;;;11.73;7.90;;;;;;;;;;4908553;29;20036;-80
2024/03/06 14:42:25;;;;;;;12.63;7.35;;;;;;;;;;4913332;29;20058;-81
2024/03/06 14:45:08;;;;;;;16.33;8.13;;;;;;;;;;4911915;29;20052;-79
2024/03/06 14:47:52;;;;;;;13.93;7.85;;;;;;;;;;4919041;29;20063;-80